sensor_id;sensor_type;location;lat;lon;timestamp;P1;durP1;ratioP1;P2;durP2;ratioP2
23730;SDS011;12046;44.702;10.622;2022-11-20T00:00:04;55.35;;;36.65;;
23730;SDS011;12046;44.702;10.622;2022-11-20T00:02:31;62.83;;;39.90;;
23730;SDS011;12046;44.702;10.622;2022-11-20T00:04:56;57.50;;;38.45;;
23730;SDS011;12046;44.702;10.622;2022-11-20T00:07:23;58.20;;;39.97;;
23730;SDS011;12046;44.702;10.622;2022-11-20T00:09:49;58.60;;;37.92;;
23730;SDS011;12046;44.702;10.622;2022-11-20T00:12:15;61.40;;;40.47;;
23730;SDS011;12046;44.702;10.622;2022-11-20T00:14:41;59.92;;;38.08;;
23730;SDS011;12046;44.702;10.622;2022-11-20T00:17:07;59.45;;;40.15;;
23730;SDS011;12046;44.702;10.622;2022-11-20T00:19:33;58.80;;;38.13;;
23730;SDS011;12046;44.702;10.622;2022-11-20T00:21:59;52.03;;;34.03;;
23730;SDS011;12046;44.702;10.622;2022-11-20T00:24:25;61.85;;;41.25;;
23730;SDS011;12046;44.702;10.622;2022-11-20T00:26:51;56.20;;;37.47;;
23730;SDS011;12046;44.702;10.622;2022-11-20T00:29:17;57.42;;;36.95;;
23730;SDS011;12046;44.702;10.622;2022-11-20T00:31:43;56.70;;;36.80;;
23730;SDS011;12046;44.702;10.622;2022-11-20T00:34:09;59.97;;;39.58;;
23730;SDS011;12046;44.702;10.622;2022-11-20T00:36:35;70.82;;;45.72;;
23730;SDS011;12046;44.702;10.622;2022-11-20T00:39:01;55.92;;;38.45;;
23730;SDS011;12046;44.702;10.622;2022-11-20T00:41:28;57.42;;;38.53;;
23730;SDS011;12046;44.702;10.622;2022-11-20T00:43:55;56.88;;;38.15;;
23730;SDS011;12046;44.702;10.622;2022-11-20T00:46:22;67.70;;;42.90;;
23730;SDS011;12046;44.702;10.622;2022-11-20T00:48:49;59.65;;;37.40;;
23730;SDS011;12046;44.702;10.622;2022-11-20T00:51:17;59.50;;;38.58;;
23730;SDS011;12046;44.702;10.622;2022-11-20T00:53:44;57.13;;;39.40;;
23730;SDS011;12046;44.702;10.622;2022-11-20T00:56:11;64.63;;;42.35;;
23730;SDS011;12046;44.702;10.622;2022-11-20T00:58:39;62.75;;;39.92;;
23730;SDS011;12046;44.702;10.622;2022-11-20T01:01:11;53.40;;;37.85;;
23730;SDS011;12046;44.702;10.622;2022-11-20T01:06:29;56.65;;;35.63;;
23730;SDS011;12046;44.702;10.622;2022-11-20T01:08:56;65.10;;;41.88;;
23730;SDS011;12046;44.702;10.622;2022-11-20T01:11:26;61.70;;;38.05;;
23730;SDS011;12046;44.702;10.622;2022-11-20T01:13:54;67.22;;;43.00;;
23730;SDS011;12046;44.702;10.622;2022-11-20T01:16:22;57.30;;;36.33;;
23730;SDS011;12046;44.702;10.622;2022-11-20T01:19:02;61.83;;;40.80;;
23730;SDS011;12046;44.702;10.622;2022-11-20T01:21:31;53.33;;;33.50;;
23730;SDS011;12046;44.702;10.622;2022-11-20T01:23:59;52.53;;;35.33;;
23730;SDS011;12046;44.702;10.622;2022-11-20T01:26:28;54.30;;;38.03;;
23730;SDS011;12046;44.702;10.622;2022-11-20T01:28:55;60.55;;;40.35;;
23730;SDS011;12046;44.702;10.622;2022-11-20T01:31:23;58.20;;;38.22;;
23730;SDS011;12046;44.702;10.622;2022-11-20T01:33:53;57.45;;;36.05;;
23730;SDS011;12046;44.702;10.622;2022-11-20T01:36:21;59.78;;;40.50;;
23730;SDS011;12046;44.702;10.622;2022-11-20T01:38:52;48.65;;;34.80;;
23730;SDS011;12046;44.702;10.622;2022-11-20T01:41:24;53.00;;;37.38;;
23730;SDS011;12046;44.702;10.622;2022-11-20T01:44:10;53.03;;;36.78;;
23730;SDS011;12046;44.702;10.622;2022-11-20T01:46:40;55.72;;;37.17;;
23730;SDS011;12046;44.702;10.622;2022-11-20T01:49:21;63.63;;;43.55;;
23730;SDS011;12046;44.702;10.622;2022-11-20T01:54:53;50.10;;;35.25;;
23730;SDS011;12046;44.702;10.622;2022-11-20T01:57:22;49.45;;;33.80;;
23730;SDS011;12046;44.702;10.622;2022-11-20T02:00:12;55.30;;;38.83;;
23730;SDS011;12046;44.702;10.622;2022-11-20T02:02:42;49.00;;;34.20;;
23730;SDS011;12046;44.702;10.622;2022-11-20T02:07:49;60.88;;;42.17;;
23730;SDS011;12046;44.702;10.622;2022-11-20T02:10:15;52.13;;;35.80;;
23730;SDS011;12046;44.702;10.622;2022-11-20T02:12:42;49.80;;;34.15;;
23730;SDS011;12046;44.702;10.622;2022-11-20T02:15:26;59.97;;;42.58;;
23730;SDS011;12046;44.702;10.622;2022-11-20T02:17:52;55.40;;;39.35;;
23730;SDS011;12046;44.702;10.622;2022-11-20T02:20:19;54.15;;;38.42;;
23730;SDS011;12046;44.702;10.622;2022-11-20T02:22:49;53.85;;;38.10;;
23730;SDS011;12046;44.702;10.622;2022-11-20T02:25:20;50.67;;;34.58;;
23730;SDS011;12046;44.702;10.622;2022-11-20T02:27:47;59.28;;;39.35;;
23730;SDS011;12046;44.702;10.622;2022-11-20T02:30:13;49.40;;;35.53;;
23730;SDS011;12046;44.702;10.622;2022-11-20T02:32:39;50.80;;;34.53;;
23730;SDS011;12046;44.702;10.622;2022-11-20T02:35:08;49.20;;;34.20;;
23730;SDS011;12046;44.702;10.622;2022-11-20T02:37:56;60.83;;;38.55;;
23730;SDS011;12046;44.702;10.622;2022-11-20T02:40:24;49.72;;;34.30;;
23730;SDS011;12046;44.702;10.622;2022-11-20T02:42:54;46.42;;;31.10;;
23730;SDS011;12046;44.702;10.622;2022-11-20T02:45:20;46.83;;;32.85;;
23730;SDS011;12046;44.702;10.622;2022-11-20T02:47:47;45.83;;;30.92;;
23730;SDS011;12046;44.702;10.622;2022-11-20T02:50:14;49.50;;;34.05;;
23730;SDS011;12046;44.702;10.622;2022-11-20T02:52:40;47.58;;;33.25;;
23730;SDS011;12046;44.702;10.622;2022-11-20T02:55:06;44.00;;;30.73;;
23730;SDS011;12046;44.702;10.622;2022-11-20T02:57:32;45.65;;;33.28;;
23730;SDS011;12046;44.702;10.622;2022-11-20T02:59:58;43.25;;;32.17;;
23730;SDS011;12046;44.702;10.622;2022-11-20T03:02:24;43.72;;;33.10;;
23730;SDS011;12046;44.702;10.622;2022-11-20T03:04:50;40.28;;;30.70;;
23730;SDS011;12046;44.702;10.622;2022-11-20T03:07:18;40.63;;;29.90;;
23730;SDS011;12046;44.702;10.622;2022-11-20T03:09:47;45.85;;;31.95;;
23730;SDS011;12046;44.702;10.622;2022-11-20T03:12:13;42.25;;;30.50;;
23730;SDS011;12046;44.702;10.622;2022-11-20T03:14:39;40.67;;;30.92;;
23730;SDS011;12046;44.702;10.622;2022-11-20T03:17:05;44.00;;;31.08;;
23730;SDS011;12046;44.702;10.622;2022-11-20T03:19:31;42.95;;;31.55;;
23730;SDS011;12046;44.702;10.622;2022-11-20T03:22:00;40.30;;;31.20;;
23730;SDS011;12046;44.702;10.622;2022-11-20T03:24:26;40.30;;;30.30;;
23730;SDS011;12046;44.702;10.622;2022-11-20T03:26:55;41.85;;;29.15;;
23730;SDS011;12046;44.702;10.622;2022-11-20T03:29:21;40.55;;;29.15;;
23730;SDS011;12046;44.702;10.622;2022-11-20T03:31:47;40.45;;;29.02;;
23730;SDS011;12046;44.702;10.622;2022-11-20T03:34:13;38.38;;;27.88;;
23730;SDS011;12046;44.702;10.622;2022-11-20T03:36:39;39.00;;;27.60;;
23730;SDS011;12046;44.702;10.622;2022-11-20T03:39:06;39.30;;;26.33;;
23730;SDS011;12046;44.702;10.622;2022-11-20T03:41:37;35.17;;;26.88;;
23730;SDS011;12046;44.702;10.622;2022-11-20T03:44:07;41.63;;;28.23;;
23730;SDS011;12046;44.702;10.622;2022-11-20T03:46:35;37.35;;;25.35;;
23730;SDS011;12046;44.702;10.622;2022-11-20T03:49:04;37.28;;;27.58;;
23730;SDS011;12046;44.702;10.622;2022-11-20T03:51:34;37.42;;;25.95;;
23730;SDS011;12046;44.702;10.622;2022-11-20T03:54:02;36.05;;;25.58;;
23730;SDS011;12046;44.702;10.622;2022-11-20T03:56:31;38.92;;;29.25;;
23730;SDS011;12046;44.702;10.622;2022-11-20T03:58:59;40.83;;;27.73;;
23730;SDS011;12046;44.702;10.622;2022-11-20T04:01:29;41.33;;;28.35;;
23730;SDS011;12046;44.702;10.622;2022-11-20T04:03:57;36.38;;;25.10;;
23730;SDS011;12046;44.702;10.622;2022-11-20T04:06:27;38.33;;;26.70;;
23730;SDS011;12046;44.702;10.622;2022-11-20T04:08:55;37.92;;;26.27;;
23730;SDS011;12046;44.702;10.622;2022-11-20T04:11:23;39.17;;;25.98;;
23730;SDS011;12046;44.702;10.622;2022-11-20T04:13:50;34.60;;;24.45;;
23730;SDS011;12046;44.702;10.622;2022-11-20T04:16:18;37.78;;;27.88;;
23730;SDS011;12046;44.702;10.622;2022-11-20T04:18:44;36.25;;;25.75;;
23730;SDS011;12046;44.702;10.622;2022-11-20T04:21:11;33.58;;;25.38;;
23730;SDS011;12046;44.702;10.622;2022-11-20T04:23:37;36.17;;;26.05;;
23730;SDS011;12046;44.702;10.622;2022-11-20T04:26:05;35.00;;;25.00;;
23730;SDS011;12046;44.702;10.622;2022-11-20T04:28:33;37.20;;;26.75;;
23730;SDS011;12046;44.702;10.622;2022-11-20T04:31:05;39.10;;;29.40;;
23730;SDS011;12046;44.702;10.622;2022-11-20T04:33:33;38.35;;;27.85;;
23730;SDS011;12046;44.702;10.622;2022-11-20T04:36:03;38.17;;;27.90;;
23730;SDS011;12046;44.702;10.622;2022-11-20T04:38:35;46.05;;;32.92;;
23730;SDS011;12046;44.702;10.622;2022-11-20T04:41:03;35.90;;;25.95;;
23730;SDS011;12046;44.702;10.622;2022-11-20T04:43:30;39.42;;;29.33;;
23730;SDS011;12046;44.702;10.622;2022-11-20T04:46:00;34.38;;;24.42;;
23730;SDS011;12046;44.702;10.622;2022-11-20T04:48:28;38.65;;;28.60;;
23730;SDS011;12046;44.702;10.622;2022-11-20T04:50:55;37.15;;;24.80;;
23730;SDS011;12046;44.702;10.622;2022-11-20T04:53:21;32.63;;;23.58;;
23730;SDS011;12046;44.702;10.622;2022-11-20T04:55:48;44.15;;;32.33;;
23730;SDS011;12046;44.702;10.622;2022-11-20T04:58:14;36.40;;;27.77;;
23730;SDS011;12046;44.702;10.622;2022-11-20T05:00:41;38.25;;;28.25;;
23730;SDS011;12046;44.702;10.622;2022-11-20T05:03:07;44.03;;;30.48;;
23730;SDS011;12046;44.702;10.622;2022-11-20T05:05:33;32.33;;;24.60;;
23730;SDS011;12046;44.702;10.622;2022-11-20T05:08:00;34.03;;;24.85;;
23730;SDS011;12046;44.702;10.622;2022-11-20T05:10:28;33.55;;;24.73;;
23730;SDS011;12046;44.702;10.622;2022-11-20T05:12:56;40.78;;;30.20;;
23730;SDS011;12046;44.702;10.622;2022-11-20T05:15:22;38.90;;;28.10;;
23730;SDS011;12046;44.702;10.622;2022-11-20T05:17:52;38.50;;;29.00;;
23730;SDS011;12046;44.702;10.622;2022-11-20T05:20:18;34.83;;;26.00;;
23730;SDS011;12046;44.702;10.622;2022-11-20T05:22:45;34.78;;;23.70;;
23730;SDS011;12046;44.702;10.622;2022-11-20T05:25:11;38.10;;;27.73;;
23730;SDS011;12046;44.702;10.622;2022-11-20T05:27:37;35.83;;;26.60;;
23730;SDS011;12046;44.702;10.622;2022-11-20T05:30:03;37.78;;;28.77;;
23730;SDS011;12046;44.702;10.622;2022-11-20T05:32:31;38.60;;;27.88;;
23730;SDS011;12046;44.702;10.622;2022-11-20T05:34:57;33.53;;;25.15;;
23730;SDS011;12046;44.702;10.622;2022-11-20T05:37:23;34.90;;;24.75;;
23730;SDS011;12046;44.702;10.622;2022-11-20T05:39:49;41.83;;;29.25;;
23730;SDS011;12046;44.702;10.622;2022-11-20T05:42:14;40.28;;;28.48;;
23730;SDS011;12046;44.702;10.622;2022-11-20T05:44:59;35.15;;;25.63;;
23730;SDS011;12046;44.702;10.622;2022-11-20T05:47:26;39.00;;;29.38;;
23730;SDS011;12046;44.702;10.622;2022-11-20T05:49:53;37.35;;;27.40;;
23730;SDS011;12046;44.702;10.622;2022-11-20T05:52:19;36.03;;;26.05;;
23730;SDS011;12046;44.702;10.622;2022-11-20T05:54:45;41.90;;;28.70;;
23730;SDS011;12046;44.702;10.622;2022-11-20T05:57:11;40.90;;;30.33;;
23730;SDS011;12046;44.702;10.622;2022-11-20T05:59:37;38.30;;;27.77;;
23730;SDS011;12046;44.702;10.622;2022-11-20T06:02:03;41.47;;;30.20;;
23730;SDS011;12046;44.702;10.622;2022-11-20T06:04:29;32.03;;;23.98;;
23730;SDS011;12046;44.702;10.622;2022-11-20T06:06:54;34.92;;;22.92;;
23730;SDS011;12046;44.702;10.622;2022-11-20T06:09:20;36.53;;;26.60;;
23730;SDS011;12046;44.702;10.622;2022-11-20T06:11:46;29.70;;;24.63;;
23730;SDS011;12046;44.702;10.622;2022-11-20T06:14:12;32.63;;;25.75;;
23730;SDS011;12046;44.702;10.622;2022-11-20T06:16:38;38.22;;;28.98;;
23730;SDS011;12046;44.702;10.622;2022-11-20T06:19:04;30.60;;;21.75;;
23730;SDS011;12046;44.702;10.622;2022-11-20T06:21:30;27.75;;;19.35;;
23730;SDS011;12046;44.702;10.622;2022-11-20T06:23:56;34.40;;;25.63;;
23730;SDS011;12046;44.702;10.622;2022-11-20T06:26:23;30.88;;;23.70;;
23730;SDS011;12046;44.702;10.622;2022-11-20T06:28:50;27.27;;;20.08;;
23730;SDS011;12046;44.702;10.622;2022-11-20T06:31:18;30.23;;;19.25;;
23730;SDS011;12046;44.702;10.622;2022-11-20T06:33:46;27.60;;;20.67;;
23730;SDS011;12046;44.702;10.622;2022-11-20T06:36:18;33.75;;;24.10;;
23730;SDS011;12046;44.702;10.622;2022-11-20T06:38:46;28.98;;;22.45;;
23730;SDS011;12046;44.702;10.622;2022-11-20T06:41:13;26.83;;;19.27;;
23730;SDS011;12046;44.702;10.622;2022-11-20T06:43:40;27.15;;;20.67;;
23730;SDS011;12046;44.702;10.622;2022-11-20T06:46:08;27.20;;;23.08;;
23730;SDS011;12046;44.702;10.622;2022-11-20T06:48:35;28.25;;;19.15;;
23730;SDS011;12046;44.702;10.622;2022-11-20T06:51:04;28.02;;;22.77;;
23730;SDS011;12046;44.702;10.622;2022-11-20T06:53:32;29.95;;;20.70;;
23730;SDS011;12046;44.702;10.622;2022-11-20T06:55:58;25.73;;;19.38;;
23730;SDS011;12046;44.702;10.622;2022-11-20T06:58:28;25.52;;;19.65;;
23730;SDS011;12046;44.702;10.622;2022-11-20T07:00:59;27.10;;;20.40;;
23730;SDS011;12046;44.702;10.622;2022-11-20T07:03:26;23.90;;;17.42;;
23730;SDS011;12046;44.702;10.622;2022-11-20T07:05:54;20.80;;;17.08;;
23730;SDS011;12046;44.702;10.622;2022-11-20T07:08:23;20.73;;;16.65;;
23730;SDS011;12046;44.702;10.622;2022-11-20T07:10:50;20.55;;;16.83;;
23730;SDS011;12046;44.702;10.622;2022-11-20T07:13:16;20.30;;;15.65;;
23730;SDS011;12046;44.702;10.622;2022-11-20T07:15:42;19.45;;;15.60;;
23730;SDS011;12046;44.702;10.622;2022-11-20T07:18:08;19.42;;;16.65;;
23730;SDS011;12046;44.702;10.622;2022-11-20T07:20:34;24.15;;;17.08;;
23730;SDS011;12046;44.702;10.622;2022-11-20T07:23:00;22.70;;;17.58;;
23730;SDS011;12046;44.702;10.622;2022-11-20T07:25:26;23.10;;;20.08;;
23730;SDS011;12046;44.702;10.622;2022-11-20T07:27:56;18.77;;;15.82;;
23730;SDS011;12046;44.702;10.622;2022-11-20T07:30:23;21.98;;;17.77;;
23730;SDS011;12046;44.702;10.622;2022-11-20T07:32:53;20.02;;;15.35;;
23730;SDS011;12046;44.702;10.622;2022-11-20T07:35:20;21.13;;;17.58;;
23730;SDS011;12046;44.702;10.622;2022-11-20T07:37:47;19.17;;;16.88;;
23730;SDS011;12046;44.702;10.622;2022-11-20T07:40:14;20.52;;;16.17;;
23730;SDS011;12046;44.702;10.622;2022-11-20T07:42:47;19.45;;;15.52;;
23730;SDS011;12046;44.702;10.622;2022-11-20T07:47:40;17.15;;;14.75;;
23730;SDS011;12046;44.702;10.622;2022-11-20T07:50:06;19.02;;;15.98;;
23730;SDS011;12046;44.702;10.622;2022-11-20T07:52:32;20.27;;;17.23;;
23730;SDS011;12046;44.702;10.622;2022-11-20T07:54:58;22.23;;;17.15;;
23730;SDS011;12046;44.702;10.622;2022-11-20T07:57:24;21.20;;;18.23;;
23730;SDS011;12046;44.702;10.622;2022-11-20T07:59:50;17.45;;;15.25;;
23730;SDS011;12046;44.702;10.622;2022-11-20T08:02:16;21.17;;;17.52;;
23730;SDS011;12046;44.702;10.622;2022-11-20T08:04:41;22.80;;;17.80;;
23730;SDS011;12046;44.702;10.622;2022-11-20T08:07:07;21.38;;;16.75;;
23730;SDS011;12046;44.702;10.622;2022-11-20T08:09:33;23.98;;;18.73;;
23730;SDS011;12046;44.702;10.622;2022-11-20T08:11:59;29.30;;;21.85;;
23730;SDS011;12046;44.702;10.622;2022-11-20T08:14:43;26.63;;;21.15;;
23730;SDS011;12046;44.702;10.622;2022-11-20T08:17:09;29.45;;;22.90;;
23730;SDS011;12046;44.702;10.622;2022-11-20T08:19:35;33.45;;;25.13;;
23730;SDS011;12046;44.702;10.622;2022-11-20T08:22:01;33.70;;;26.55;;
23730;SDS011;12046;44.702;10.622;2022-11-20T08:24:27;36.55;;;27.48;;
23730;SDS011;12046;44.702;10.622;2022-11-20T08:26:53;38.42;;;29.60;;
23730;SDS011;12046;44.702;10.622;2022-11-20T08:29:19;38.30;;;28.95;;
23730;SDS011;12046;44.702;10.622;2022-11-20T08:31:45;39.55;;;28.90;;
23730;SDS011;12046;44.702;10.622;2022-11-20T08:34:10;41.35;;;29.73;;
23730;SDS011;12046;44.702;10.622;2022-11-20T08:36:36;35.40;;;27.08;;
23730;SDS011;12046;44.702;10.622;2022-11-20T08:39:02;36.88;;;28.38;;
23730;SDS011;12046;44.702;10.622;2022-11-20T08:41:29;35.20;;;27.08;;
23730;SDS011;12046;44.702;10.622;2022-11-20T08:44:02;36.10;;;27.88;;
23730;SDS011;12046;44.702;10.622;2022-11-20T08:46:36;36.40;;;29.48;;
23730;SDS011;12046;44.702;10.622;2022-11-20T08:49:04;38.65;;;29.50;;
23730;SDS011;12046;44.702;10.622;2022-11-20T08:51:32;38.58;;;29.98;;
23730;SDS011;12046;44.702;10.622;2022-11-20T08:53:58;37.97;;;29.67;;
23730;SDS011;12046;44.702;10.622;2022-11-20T08:56:24;38.10;;;30.42;;
23730;SDS011;12046;44.702;10.622;2022-11-20T08:58:50;36.90;;;30.60;;
23730;SDS011;12046;44.702;10.622;2022-11-20T09:01:18;36.83;;;29.00;;
23730;SDS011;12046;44.702;10.622;2022-11-20T09:03:45;38.13;;;30.40;;
23730;SDS011;12046;44.702;10.622;2022-11-20T09:06:11;43.92;;;35.22;;
23730;SDS011;12046;44.702;10.622;2022-11-20T09:08:37;36.88;;;28.92;;
23730;SDS011;12046;44.702;10.622;2022-11-20T09:11:04;36.22;;;29.60;;
23730;SDS011;12046;44.702;10.622;2022-11-20T09:13:32;38.47;;;31.42;;
23730;SDS011;12046;44.702;10.622;2022-11-20T09:16:00;36.72;;;29.80;;
23730;SDS011;12046;44.702;10.622;2022-11-20T09:18:29;39.20;;;30.52;;
23730;SDS011;12046;44.702;10.622;2022-11-20T09:20:58;39.35;;;32.30;;
23730;SDS011;12046;44.702;10.622;2022-11-20T09:23:25;44.53;;;36.75;;
23730;SDS011;12046;44.702;10.622;2022-11-20T09:25:52;40.08;;;33.95;;
23730;SDS011;12046;44.702;10.622;2022-11-20T09:28:20;44.22;;;37.05;;
23730;SDS011;12046;44.702;10.622;2022-11-20T09:30:49;40.75;;;33.15;;
23730;SDS011;12046;44.702;10.622;2022-11-20T09:33:15;40.60;;;34.35;;
23730;SDS011;12046;44.702;10.622;2022-11-20T09:35:45;40.25;;;33.22;;
23730;SDS011;12046;44.702;10.622;2022-11-20T09:38:11;39.30;;;30.00;;
23730;SDS011;12046;44.702;10.622;2022-11-20T09:40:40;38.88;;;32.00;;
23730;SDS011;12046;44.702;10.622;2022-11-20T09:43:13;39.63;;;33.53;;
23730;SDS011;12046;44.702;10.622;2022-11-20T09:54:23;35.05;;;29.40;;
23730;SDS011;12046;44.702;10.622;2022-11-20T09:56:56;36.17;;;29.55;;
23730;SDS011;12046;44.702;10.622;2022-11-20T10:01:58;38.45;;;29.92;;
23730;SDS011;12046;44.702;10.622;2022-11-20T10:04:26;33.40;;;29.15;;
23730;SDS011;12046;44.702;10.622;2022-11-20T10:07:15;33.33;;;29.40;;
23730;SDS011;12046;44.702;10.622;2022-11-20T10:09:55;37.85;;;31.35;;
23730;SDS011;12046;44.702;10.622;2022-11-20T10:33:59;29.90;;;26.70;;
23730;SDS011;12046;44.702;10.622;2022-11-20T10:36:38;30.10;;;26.90;;
23730;SDS011;12046;44.702;10.622;2022-11-20T10:39:21;28.35;;;25.20;;
23730;SDS011;12046;44.702;10.622;2022-11-20T10:41:55;32.58;;;28.83;;
23730;SDS011;12046;44.702;10.622;2022-11-20T10:44:25;30.98;;;27.88;;
23730;SDS011;12046;44.702;10.622;2022-11-20T10:47:13;31.77;;;28.42;;
23730;SDS011;12046;44.702;10.622;2022-11-20T10:49:44;32.88;;;28.40;;
23730;SDS011;12046;44.702;10.622;2022-11-20T10:52:16;34.85;;;31.20;;
23730;SDS011;12046;44.702;10.622;2022-11-20T11:00:02;31.40;;;28.13;;
23730;SDS011;12046;44.702;10.622;2022-11-20T11:02:32;33.25;;;29.92;;
23730;SDS011;12046;44.702;10.622;2022-11-20T11:05:12;32.00;;;28.63;;
23730;SDS011;12046;44.702;10.622;2022-11-20T11:07:44;35.65;;;31.85;;
23730;SDS011;12046;44.702;10.622;2022-11-20T11:10:18;34.53;;;30.98;;
23730;SDS011;12046;44.702;10.622;2022-11-20T11:13:03;34.90;;;31.50;;
23730;SDS011;12046;44.702;10.622;2022-11-20T11:15:30;36.63;;;32.97;;
23730;SDS011;12046;44.702;10.622;2022-11-20T11:18:02;32.30;;;28.97;;
23730;SDS011;12046;44.702;10.622;2022-11-20T11:20:29;34.45;;;30.75;;
23730;SDS011;12046;44.702;10.622;2022-11-20T11:22:57;35.83;;;32.13;;
23730;SDS011;12046;44.702;10.622;2022-11-20T11:28:03;34.30;;;30.88;;
23730;SDS011;12046;44.702;10.622;2022-11-20T11:30:40;36.42;;;32.90;;
23730;SDS011;12046;44.702;10.622;2022-11-20T11:33:19;36.08;;;32.28;;
23730;SDS011;12046;44.702;10.622;2022-11-20T11:35:46;36.25;;;32.55;;
23730;SDS011;12046;44.702;10.622;2022-11-20T11:38:30;36.38;;;31.83;;
23730;SDS011;12046;44.702;10.622;2022-11-20T11:43:48;33.42;;;30.02;;
23730;SDS011;12046;44.702;10.622;2022-11-20T11:46:39;35.67;;;31.98;;
23730;SDS011;12046;44.702;10.622;2022-11-20T11:54:17;36.10;;;32.30;;
23730;SDS011;12046;44.702;10.622;2022-11-20T11:56:50;35.40;;;31.80;;
23730;SDS011;12046;44.702;10.622;2022-11-20T11:59:22;36.22;;;32.67;;
23730;SDS011;12046;44.702;10.622;2022-11-20T12:01:55;35.00;;;31.40;;
23730;SDS011;12046;44.702;10.622;2022-11-20T12:04:37;37.85;;;33.28;;
23730;SDS011;12046;44.702;10.622;2022-11-20T12:07:51;36.42;;;32.83;;
23730;SDS011;12046;44.702;10.622;2022-11-20T12:10:03;35.90;;;32.15;;
23730;SDS011;12046;44.702;10.622;2022-11-20T12:12:32;40.00;;;34.90;;
23730;SDS011;12046;44.702;10.622;2022-11-20T12:15:06;35.75;;;32.08;;
23730;SDS011;12046;44.702;10.622;2022-11-20T12:17:41;36.38;;;32.03;;
23730;SDS011;12046;44.702;10.622;2022-11-20T12:20:11;36.45;;;32.92;;
23730;SDS011;12046;44.702;10.622;2022-11-20T12:22:43;36.45;;;32.45;;
23730;SDS011;12046;44.702;10.622;2022-11-20T12:25:14;38.17;;;34.38;;
23730;SDS011;12046;44.702;10.622;2022-11-20T12:27:53;38.70;;;34.47;;
23730;SDS011;12046;44.702;10.622;2022-11-20T12:30:23;39.17;;;35.08;;
23730;SDS011;12046;44.702;10.622;2022-11-20T12:43:34;39.30;;;35.40;;
23730;SDS011;12046;44.702;10.622;2022-11-20T12:46:37;39.15;;;34.97;;
23730;SDS011;12046;44.702;10.622;2022-11-20T12:49:13;38.38;;;34.20;;
23730;SDS011;12046;44.702;10.622;2022-11-20T12:51:52;38.95;;;32.60;;
23730;SDS011;12046;44.702;10.622;2022-11-20T13:05:21;39.38;;;35.13;;
23730;SDS011;12046;44.702;10.622;2022-11-20T13:08:01;38.53;;;33.38;;
23730;SDS011;12046;44.702;10.622;2022-11-20T13:10:33;36.83;;;32.58;;
23730;SDS011;12046;44.702;10.622;2022-11-20T13:13:15;39.60;;;35.60;;
23730;SDS011;12046;44.702;10.622;2022-11-20T13:15:48;37.50;;;33.50;;
23730;SDS011;12046;44.702;10.622;2022-11-20T13:18:21;37.42;;;33.42;;
23730;SDS011;12046;44.702;10.622;2022-11-20T13:20:47;34.65;;;31.00;;
23730;SDS011;12046;44.702;10.622;2022-11-20T13:23:25;38.03;;;33.97;;
23730;SDS011;12046;44.702;10.622;2022-11-20T13:26:02;37.55;;;33.58;;
23730;SDS011;12046;44.702;10.622;2022-11-20T13:29:08;32.30;;;28.83;;
23730;SDS011;12046;44.702;10.622;2022-11-20T13:31:38;34.42;;;29.33;;
23730;SDS011;12046;44.702;10.622;2022-11-20T13:34:11;31.35;;;28.15;;
23730;SDS011;12046;44.702;10.622;2022-11-20T13:36:50;35.67;;;31.02;;
23730;SDS011;12046;44.702;10.622;2022-11-20T13:39:25;36.28;;;32.55;;
23730;SDS011;12046;44.702;10.622;2022-11-20T13:41:55;35.83;;;32.08;;
23730;SDS011;12046;44.702;10.622;2022-11-20T13:44:24;37.53;;;33.47;;
23730;SDS011;12046;44.702;10.622;2022-11-20T13:47:03;38.03;;;34.28;;
23730;SDS011;12046;44.702;10.622;2022-11-20T13:49:33;35.97;;;32.08;;
23730;SDS011;12046;44.702;10.622;2022-11-20T14:05:36;38.22;;;32.15;;
23730;SDS011;12046;44.702;10.622;2022-11-20T14:08:05;35.90;;;30.50;;
23730;SDS011;12046;44.702;10.622;2022-11-20T14:10:38;35.10;;;29.25;;
23730;SDS011;12046;44.702;10.622;2022-11-20T14:13:15;38.47;;;31.67;;
23730;SDS011;12046;44.702;10.622;2022-11-20T14:15:44;36.83;;;31.40;;
23730;SDS011;12046;44.702;10.622;2022-11-20T14:18:14;36.78;;;31.63;;
23730;SDS011;12046;44.702;10.622;2022-11-20T14:20:45;31.92;;;28.42;;
23730;SDS011;12046;44.702;10.622;2022-11-20T14:23:12;33.80;;;30.08;;
23730;SDS011;12046;44.702;10.622;2022-11-20T14:25:48;33.72;;;29.70;;
23730;SDS011;12046;44.702;10.622;2022-11-20T14:28:24;32.60;;;28.95;;
23730;SDS011;12046;44.702;10.622;2022-11-20T14:30:52;30.70;;;26.70;;
23730;SDS011;12046;44.702;10.622;2022-11-20T14:33:18;31.10;;;27.95;;
23730;SDS011;12046;44.702;10.622;2022-11-20T14:35:52;33.72;;;30.15;;
23730;SDS011;12046;44.702;10.622;2022-11-20T14:38:27;31.67;;;28.27;;
23730;SDS011;12046;44.702;10.622;2022-11-20T14:40:54;33.75;;;30.10;;
23730;SDS011;12046;44.702;10.622;2022-11-20T14:43:30;36.88;;;31.38;;
23730;SDS011;12046;44.702;10.622;2022-11-20T14:45:59;36.60;;;32.28;;
23730;SDS011;12046;44.702;10.622;2022-11-20T14:51:10;38.08;;;32.63;;
23730;SDS011;12046;44.702;10.622;2022-11-20T14:53:48;37.03;;;32.03;;
23730;SDS011;12046;44.702;10.622;2022-11-20T14:56:14;36.08;;;32.17;;
23730;SDS011;12046;44.702;10.622;2022-11-20T14:58:55;39.95;;;33.92;;
23730;SDS011;12046;44.702;10.622;2022-11-20T15:01:26;35.08;;;31.35;;
23730;SDS011;12046;44.702;10.622;2022-11-20T15:04:00;37.83;;;32.15;;
23730;SDS011;12046;44.702;10.622;2022-11-20T15:06:27;37.45;;;33.03;;
23730;SDS011;12046;44.702;10.622;2022-11-20T15:08:53;32.97;;;29.15;;
23730;SDS011;12046;44.702;10.622;2022-11-20T15:11:30;37.42;;;31.30;;
23730;SDS011;12046;44.702;10.622;2022-11-20T15:13:58;37.65;;;32.22;;
23730;SDS011;12046;44.702;10.622;2022-11-20T15:16:29;36.83;;;31.48;;
23730;SDS011;12046;44.702;10.622;2022-11-20T15:18:56;39.72;;;32.83;;
23730;SDS011;12046;44.702;10.622;2022-11-20T15:21:22;39.13;;;30.95;;
23730;SDS011;12046;44.702;10.622;2022-11-20T15:23:48;38.38;;;32.20;;
23730;SDS011;12046;44.702;10.622;2022-11-20T15:26:17;40.60;;;32.22;;
23730;SDS011;12046;44.702;10.622;2022-11-20T15:28:47;38.83;;;32.13;;
23730;SDS011;12046;44.702;10.622;2022-11-20T15:31:16;38.80;;;32.83;;
23730;SDS011;12046;44.702;10.622;2022-11-20T15:33:47;41.40;;;30.85;;
23730;SDS011;12046;44.702;10.622;2022-11-20T15:36:13;43.10;;;32.20;;
23730;SDS011;12046;44.702;10.622;2022-11-20T15:38:40;44.75;;;31.50;;
23730;SDS011;12046;44.702;10.622;2022-11-20T15:41:06;43.40;;;30.67;;
23730;SDS011;12046;44.702;10.622;2022-11-20T15:43:33;42.45;;;31.35;;
23730;SDS011;12046;44.702;10.622;2022-11-20T15:46:00;44.25;;;32.38;;
23730;SDS011;12046;44.702;10.622;2022-11-20T15:48:31;45.13;;;33.65;;
23730;SDS011;12046;44.702;10.622;2022-11-20T15:53:31;48.92;;;34.92;;
23730;SDS011;12046;44.702;10.622;2022-11-20T15:55:57;47.53;;;36.05;;
23730;SDS011;12046;44.702;10.622;2022-11-20T15:58:23;46.28;;;32.42;;
23730;SDS011;12046;44.702;10.622;2022-11-20T16:00:51;43.08;;;31.35;;